Time;durP1;ratioP1;P1;durP2;ratioP2;P2;SDS_P1;SDS_P2;PMS_P1;PMS_P2;Temp;Humidity;BMP_temperature;BMP_pressure;BME280_temperature;BME280_humidity;BME280_pressure;Samples;Min_cycle;Max_cycle;Signal;HPM_P1;HPM_P2
2023/12/24 00:00:17;;;;;;;0.25;0.25;;;;;;;8.68;100.00;98765.53;5088291;28;20050;-58
2023/12/24 00:02:44;;;;;;;0.20;0.20;;;;;;;8.59;100.00;98767.78;5089475;28;20087;-58
2023/12/24 00:05:11;;;;;;;0.30;0.30;;;;;;;8.61;100.00;98765.69;5088089;28;20088;-58
2023/12/24 00:07:40;;;;;;;0.30;0.30;;;;;;;8.66;100.00;98743.56;5097136;28;20054;-58
2023/12/24 00:10:08;;;;;;;0.20;0.20;;;;;;;8.74;100.00;98739.72;5095263;28;20047;-57
2023/12/24 00:12:37;;;;;;;0.20;0.20;;;;;;;8.68;100.00;98736.13;5074400;28;20134;-58
2023/12/24 00:15:07;;;;;;;0.20;0.20;;;;;;;8.69;100.00;98736.97;5087971;28;20105;-60
2023/12/24 00:17:34;;;;;;;0.30;0.30;;;;;;;8.63;100.00;98722.69;5090813;28;20539;-59
2023/12/24 00:20:03;;;;;;;0.20;0.20;;;;;;;8.74;100.00;98737.06;5092238;28;20089;-59
2023/12/24 00:22:30;;;;;;;0.30;0.30;;;;;;;8.62;100.00;98734.44;5055297;28;20088;-59
2023/12/24 00:24:59;;;;;;;0.30;0.30;;;;;;;8.67;100.00;98733.72;5098072;28;20453;-59
2023/12/24 00:27:26;;;;;;;0.30;0.30;;;;;;;8.55;100.00;98733.78;5094337;28;20159;-59
2023/12/24 00:29:53;;;;;;;0.30;0.30;;;;;;;8.56;100.00;98735.41;5087777;28;20110;-59
2023/12/24 00:32:20;;;;;;;0.20;0.20;;;;;;;8.62;100.00;98750.47;5084628;28;20055;-59
2023/12/24 00:34:48;;;;;;;0.28;0.28;;;;;;;8.66;100.00;98756.94;5089800;28;20071;-59
2023/12/24 00:37:15;;;;;;;0.30;0.30;;;;;;;8.72;100.00;98756.00;5069892;28;20040;-59
2023/12/24 00:39:42;;;;;;;0.20;0.20;;;;;;;8.70;100.00;98755.41;5086020;28;21342;-59
2023/12/24 00:42:11;;;;;;;0.30;0.30;;;;;;;8.75;100.00;98758.16;5087675;28;21714;-59
2023/12/24 00:44:43;;;;;;;0.20;0.20;;;;;;;8.75;100.00;98770.72;5092780;28;20044;-59
2023/12/24 00:47:10;;;;;;;0.30;0.30;;;;;;;8.76;100.00;98773.16;5093962;28;20116;-59
2023/12/24 00:49:36;;;;;;;0.20;0.20;;;;;;;8.74;100.00;98769.91;5089401;28;20685;-59
2023/12/24 00:52:04;;;;;;;0.20;0.20;;;;;;;8.75;100.00;98773.41;5090016;28;20959;-60
2023/12/24 00:54:32;;;;;;;0.30;0.30;;;;;;;8.74;100.00;98791.28;5085950;28;20067;-59
2023/12/24 00:56:59;;;;;;;0.30;0.30;;;;;;;8.79;100.00;98780.69;5084126;28;20040;-59
2023/12/24 00:59:28;;;;;;;0.20;0.20;;;;;;;8.81;100.00;98781.28;5090586;28;20146;-59
2023/12/24 01:01:55;;;;;;;0.28;0.28;;;;;;;8.75;100.00;98784.88;5088700;28;20039;-59
2023/12/24 01:04:22;;;;;;;0.30;0.30;;;;;;;8.79;100.00;98783.38;5086376;28;20040;-57
2023/12/24 01:06:49;;;;;;;0.20;0.20;;;;;;;8.82;100.00;98788.22;5087856;28;20145;-60
2023/12/24 01:09:17;;;;;;;0.20;0.20;;;;;;;8.88;100.00;98789.13;5085103;28;20225;-57
2023/12/24 01:11:44;;;;;;;0.20;0.20;;;;;;;8.83;100.00;98779.13;5083293;28;20648;-60
2023/12/24 01:14:11;;;;;;;0.20;0.20;;;;;;;8.97;100.00;98789.53;5087324;28;20396;-60
2023/12/24 01:16:41;;;;;;;0.20;0.20;;;;;;;8.87;100.00;98789.38;5086440;28;21100;-60
2023/12/24 01:19:08;;;;;;;;;;;;;;;8.84;100.00;98796.81;5064502;28;20052;-58
2023/12/24 01:21:35;;;;;;;0.40;0.40;;;;;;;8.90;100.00;98778.19;5071151;28;19931;-59
2023/12/24 01:24:02;;;;;;;0.30;0.30;;;;;;;8.96;100.00;98794.06;5093273;28;20139;-59
2023/12/24 01:26:30;;;;;;;0.20;0.20;;;;;;;8.91;100.00;98795.84;5082712;28;20096;-59
2023/12/24 01:28:57;;;;;;;0.30;0.30;;;;;;;8.93;100.00;98804.44;5070745;28;20050;-59
2023/12/24 01:31:27;;;;;;;0.30;0.30;;;;;;;8.84;100.00;98798.69;5084823;28;20050;-59
2023/12/24 01:33:55;;;;;;;0.30;0.30;;;;;;;8.93;100.00;98804.44;5090349;28;20051;-59
2023/12/24 01:36:22;;;;;;;0.20;0.20;;;;;;;8.94;100.00;98798.84;5090180;28;20163;-59
2023/12/24 01:38:49;;;;;;;0.30;0.30;;;;;;;8.94;100.00;98785.50;5068801;28;20036;-59
2023/12/24 01:41:16;;;;;;;0.30;0.30;;;;;;;8.97;100.00;98785.00;5089448;28;20125;-59
2023/12/24 01:43:43;;;;;;;0.28;0.28;;;;;;;8.95;100.00;98775.59;5075346;28;20460;-59
2023/12/24 01:46:11;;;;;;;0.30;0.30;;;;;;;8.90;100.00;98783.53;5085687;28;20907;-59
2023/12/24 01:48:38;;;;;;;0.30;0.30;;;;;;;8.97;100.00;98778.84;5088259;28;20450;-59
2023/12/24 01:51:07;;;;;;;0.30;0.30;;;;;;;8.88;100.00;98789.13;5066036;28;20134;-60
2023/12/24 01:53:36;;;;;;;0.20;0.20;;;;;;;8.87;100.00;98789.38;5072503;28;20046;-59
2023/12/24 01:56:04;;;;;;;0.20;0.20;;;;;;;8.86;100.00;98799.22;5088281;28;20047;-59
2023/12/24 01:58:31;;;;;;;0.20;0.20;;;;;;;8.81;100.00;98781.28;5087954;28;20071;-59
2023/12/24 02:00:59;;;;;;;0.20;0.20;;;;;;;8.82;100.00;98785.56;5087104;28;20051;-59
2023/12/24 02:03:26;;;;;;;0.20;0.20;;;;;;;8.86;100.00;98788.53;5089150;28;20397;-59
2023/12/24 02:05:53;;;;;;;0.20;0.20;;;;;;;8.86;100.00;98777.84;5078877;28;20126;-59
2023/12/24 02:08:22;;;;;;;0.20;0.20;;;;;;;8.90;100.00;98789.69;5066730;28;20113;-59
2023/12/24 02:10:49;;;;;;;0.20;0.20;;;;;;;8.95;100.00;98781.75;5073774;28;20040;-59
2023/12/24 02:13:17;;;;;;;0.22;0.22;;;;;;;8.91;100.00;98779.81;5077461;28;20505;-59
2023/12/24 02:15:45;;;;;;;0.28;0.28;;;;;;;8.95;100.00;98786.28;5089291;28;20044;-59
2023/12/24 02:18:13;;;;;;;0.30;0.30;;;;;;;8.98;100.00;98780.44;5090939;28;20036;-60
2023/12/24 02:20:40;;;;;;;0.30;0.30;;;;;;;8.93;100.00;98781.19;5053890;28;20044;-60
2023/12/24 02:23:08;;;;;;;0.28;0.28;;;;;;;9.06;100.00;98764.00;5085638;28;20062;-60
2023/12/24 02:25:36;;;;;;;0.20;0.20;;;;;;;9.01;100.00;98763.91;5072102;28;20092;-58
2023/12/24 02:28:06;;;;;;;0.28;0.28;;;;;;;8.96;100.00;98753.97;5074163;28;20039;-58
2023/12/24 02:30:34;;;;;;;0.22;0.22;;;;;;;9.02;100.00;98749.53;5086322;28;20076;-58
2023/12/24 02:33:01;;;;;;;0.20;0.20;;;;;;;8.96;100.00;98758.50;5093223;28;20052;-58
2023/12/24 02:35:34;;;;;;;0.20;0.20;;;;;;;9.04;100.00;98736.72;5067452;28;20047;-58
2023/12/24 02:38:01;;;;;;;0.30;0.30;;;;;;;9.02;100.00;98739.63;5095826;28;20043;-58
2023/12/24 02:40:30;;;;;;;0.30;0.30;;;;;;;9.05;100.00;98733.00;5092016;28;20044;-58
2023/12/24 02:42:57;;;;;;;0.30;0.30;;;;;;;8.95;100.00;98738.97;5091762;28;20213;-58
2023/12/24 02:45:24;;;;;;;0.20;0.20;;;;;;;8.93;100.00;98719.69;5096992;28;20044;-58
2023/12/24 02:47:51;;;;;;;0.20;0.20;;;;;;;8.91;100.00;98712.97;5081764;28;20040;-58
2023/12/24 02:50:19;;;;;;;0.30;0.30;;;;;;;8.88;100.00;98721.50;5069799;28;20144;-58
2023/12/24 02:52:47;;;;;;;0.20;0.20;;;;;;;8.93;100.00;98713.56;5092481;28;20178;-58
2023/12/24 02:55:14;;;;;;;0.30;0.30;;;;;;;8.85;100.00;98706.75;5094781;28;20048;-58
2023/12/24 02:57:42;;;;;;;0.30;0.30;;;;;;;8.85;100.00;98683.50;5092587;28;20040;-58
2023/12/24 03:00:11;;;;;;;0.30;0.30;;;;;;;8.81;100.00;98685.06;5091766;28;20128;-60
2023/12/24 03:02:38;;;;;;;0.20;0.20;;;;;;;8.79;100.00;98692.50;5073347;28;20126;-60
2023/12/24 03:05:05;;;;;;;0.20;0.20;;;;;;;8.72;100.00;98683.84;5079946;28;20065;-60
2023/12/24 03:07:32;;;;;;;0.20;0.20;;;;;;;8.76;100.00;98685.00;5094195;28;20050;-57
2023/12/24 03:09:59;;;;;;;0.20;0.20;;;;;;;8.76;100.00;98697.53;5068645;28;20205;-60
2023/12/24 03:12:26;;;;;;;0.30;0.30;;;;;;;8.67;100.00;98683.78;5092177;28;20040;-59
2023/12/24 03:14:55;;;;;;;0.20;0.20;;;;;;;8.74;100.00;98692.44;5095573;28;20698;-59
2023/12/24 03:17:22;;;;;;;0.30;0.30;;;;;;;8.68;100.00;98689.91;5082443;28;20040;-60
2023/12/24 03:19:49;;;;;;;0.22;0.22;;;;;;;8.66;100.00;98692.81;5090262;28;20048;-59
2023/12/24 03:22:16;;;;;;;0.30;0.30;;;;;;;8.59;100.00;98692.19;5087145;28;20040;-59
2023/12/24 03:24:44;;;;;;;0.28;0.28;;;;;;;8.66;100.00;98686.69;5077584;28;20142;-58
2023/12/24 03:27:11;;;;;;;0.30;0.30;;;;;;;8.58;100.00;98690.56;5090990;28;20069;-59
2023/12/24 03:29:38;;;;;;;0.28;0.28;;;;;;;8.61;100.00;98674.03;5098160;28;20036;-59
2023/12/24 03:32:09;;;;;;;0.30;0.30;;;;;;;8.62;100.00;98673.81;5087965;28;20239;-60
2023/12/24 03:34:36;;;;;;;0.25;0.25;;;;;;;8.58;100.00;98669.19;5089525;28;20189;-59
2023/12/24 03:37:04;;;;;;;0.20;0.20;;;;;;;8.57;100.00;98678.28;5089269;28;20159;-59
2023/12/24 03:39:31;;;;;;;0.30;0.30;;;;;;;8.48;100.00;98671.69;5092469;28;20040;-59
2023/12/24 03:41:58;;;;;;;0.20;0.20;;;;;;;8.53;100.00;98666.44;5089651;28;20043;-59
2023/12/24 03:44:25;;;;;;;0.20;0.20;;;;;;;8.55;100.00;98669.69;5093186;28;20146;-59
2023/12/24 03:46:52;;;;;;;0.30;0.30;;;;;;;8.47;100.00;98665.56;5086113;28;20544;-59
2023/12/24 03:49:21;;;;;;;0.28;0.28;;;;;;;8.38;100.00;98662.44;5060202;28;20392;-59
2023/12/24 03:51:48;;;;;;;0.28;0.28;;;;;;;8.49;100.00;98676.00;5088279;28;20060;-59
2023/12/24 03:54:16;;;;;;;0.20;0.20;;;;;;;8.47;100.00;98646.06;5095593;28;20172;-59
2023/12/24 03:56:43;;;;;;;0.20;0.20;;;;;;;8.43;100.00;98638.50;5092214;28;20726;-59
2023/12/24 03:59:10;;;;;;;0.20;0.20;;;;;;;8.38;100.00;98637.59;5072955;28;20090;-59
2023/12/24 04:01:38;;;;;;;0.20;0.20;;;;;;;8.32;100.00;98628.69;5088498;28;20035;-59
2023/12/24 04:04:05;;;;;;;0.20;0.20;;;;;;;8.29;100.00;98631.06;5073421;28;20043;-59
2023/12/24 04:06:33;;;;;;;0.30;0.30;;;;;;;8.26;100.00;98629.66;5088744;28;20079;-60
2023/12/24 04:09:05;;;;;;;0.20;0.20;;;;;;;8.33;100.00;98629.50;5065310;28;20182;-59
2023/12/24 04:11:32;;;;;;;0.30;0.30;;;;;;;8.30;100.00;98622.78;5095828;28;20812;-59
2023/12/24 04:14:01;;;;;;;0.30;0.30;;;;;;;8.28;100.00;98632.88;5088073;28;20075;-59
2023/12/24 04:16:28;;;;;;;0.20;0.20;;;;;;;8.37;100.00;98631.44;5093624;28;20055;-59
2023/12/24 04:18:55;;;;;;;0.30;0.30;;;;;;;8.31;100.00;98620.91;5073882;28;20505;-59
2023/12/24 04:21:22;;;;;;;0.30;0.30;;;;;;;8.24;100.00;98626.44;5088734;28;20044;-58
2023/12/24 04:23:51;;;;;;;0.30;0.30;;;;;;;8.35;100.00;98622.88;5093318;28;20834;-59
2023/12/24 04:26:18;;;;;;;0.30;0.30;;;;;;;8.27;100.00;98641.97;5077916;28;20315;-59
2023/12/24 04:28:45;;;;;;;0.20;0.20;;;;;;;8.28;100.00;98627.56;5071134;28;20073;-59
2023/12/24 04:31:13;;;;;;;0.30;0.30;;;;;;;8.31;100.00;98621.75;5088736;28;20063;-59
2023/12/24 04:33:40;;;;;;;0.20;0.20;;;;;;;8.36;100.00;98619.16;5072984;28;20055;-59
2023/12/24 04:36:08;;;;;;;0.20;0.20;;;;;;;8.28;100.00;98619.53;5091300;28;20117;-59
2023/12/24 04:38:35;;;;;;;0.20;0.20;;;;;;;8.31;100.00;98621.75;5091306;28;20043;-59
2023/12/24 04:41:04;;;;;;;0.30;0.30;;;;;;;8.25;100.00;98632.56;5089807;28;20143;-59
2023/12/24 04:43:31;;;;;;;0.20;0.20;;;;;;;8.28;100.00;98627.56;5090001;28;20085;-58
2023/12/24 04:45:58;;;;;;;0.30;0.30;;;;;;;8.19;100.00;98607.66;5069105;28;20075;-59
2023/12/24 04:48:25;;;;;;;0.20;0.20;;;;;;;8.23;100.00;98622.13;5089960;28;20120;-59
2023/12/24 04:50:53;;;;;;;0.32;0.32;;;;;;;8.05;100.00;98607.16;5079500;28;20140;-59
2023/12/24 04:53:20;;;;;;;0.22;0.22;;;;;;;8.21;100.00;98606.38;5071678;28;20124;-59
2023/12/24 04:55:48;;;;;;;0.30;0.30;;;;;;;8.17;100.00;98596.41;5068166;28;20501;-59
2023/12/24 04:58:17;;;;;;;0.30;0.30;;;;;;;8.18;100.00;98590.81;5063396;28;20094;-58
2023/12/24 05:00:44;;;;;;;0.30;0.30;;;;;;;8.16;100.00;98586.78;5065227;28;20044;-59
2023/12/24 05:03:11;;;;;;;0.20;0.20;;;;;;;8.15;100.00;98585.97;5064556;28;20436;-59
2023/12/24 05:05:38;;;;;;;0.30;0.30;;;;;;;8.17;100.00;98593.75;5088834;28;20040;-59
2023/12/24 05:08:05;;;;;;;0.30;0.30;;;;;;;8.26;100.00;98592.28;5063054;28;20051;-59
2023/12/24 05:10:33;;;;;;;0.25;0.25;;;;;;;8.16;100.00;98600.13;5092364;28;20128;-59
2023/12/24 05:13:00;;;;;;;0.20;0.20;;;;;;;8.21;100.00;98602.88;5076117;28;20674;-59
2023/12/24 05:15:28;;;;;;;0.32;0.32;;;;;;;8.16;100.00;98608.97;5089033;28;20051;-59
2023/12/24 05:17:55;;;;;;;0.30;0.30;;;;;;;8.22;100.00;98591.16;5075836;28;20140;-59
2023/12/24 05:20:24;;;;;;;0.30;0.30;;;;;;;8.08;100.00;98595.19;5074379;28;20719;-59
2023/12/24 05:22:51;;;;;;;0.30;0.30;;;;;;;8.13;100.00;98603.28;5070550;28;20051;-59
2023/12/24 05:25:20;;;;;;;0.30;0.30;;;;;;;8.06;100.00;98605.28;5073393;28;20048;-59
2023/12/24 05:27:47;;;;;;;0.30;0.30;;;;;;;8.15;100.00;98615.34;5091942;28;20046;-59
2023/12/24 05:30:14;;;;;;;0.40;0.40;;;;;;;8.03;100.00;98605.78;5088292;28;20146;-59
2023/12/24 05:32:43;;;;;;;0.25;0.25;;;;;;;7.97;100.00;98594.22;5086797;28;20047;-58
2023/12/24 05:35:10;;;;;;;0.28;0.28;;;;;;;8.03;100.00;98608.44;5092651;28;20098;-59
2023/12/24 05:37:37;;;;;;;0.30;0.30;;;;;;;7.99;100.00;98600.94;5091478;28;20039;-59
2023/12/24 05:40:06;;;;;;;0.40;0.40;;;;;;;8.03;100.00;98595.91;5088720;28;20048;-58
2023/12/24 05:42:34;;;;;;;0.30;0.30;;;;;;;7.98;100.00;98601.16;5090944;28;20051;-59
2023/12/24 05:45:02;;;;;;;0.30;0.30;;;;;;;8.02;100.00;98617.50;5082825;28;20048;-59
2023/12/24 05:47:29;;;;;;;0.30;0.30;;;;;;;8.06;100.00;98613.28;5086590;28;20106;-59
2023/12/24 05:49:58;;;;;;;0.20;0.20;;;;;;;8.04;100.00;98607.38;5084580;28;20414;-59
2023/12/24 05:52:25;;;;;;;0.25;0.25;;;;;;;7.96;100.00;98613.94;5074115;28;20143;-59
2023/12/24 05:54:54;;;;;;;0.30;0.30;;;;;;;8.02;100.00;98612.97;5079371;28;20051;-59
2023/12/24 05:57:21;;;;;;;0.25;0.25;;;;;;;8.04;100.00;98620.72;5086322;28;20055;-60
2023/12/24 05:59:48;;;;;;;0.30;0.30;;;;;;;8.05;100.00;98609.03;5089263;28;21155;-59
2023/12/24 06:02:15;;;;;;;0.25;0.25;;;;;;;8.16;100.00;98603.63;5090313;28;20047;-59
2023/12/24 06:04:42;;;;;;;0.25;0.25;;;;;;;8.11;100.00;98603.53;5090700;28;20044;-59
2023/12/24 06:07:11;;;;;;;0.30;0.30;;;;;;;8.12;100.00;98601.66;5068625;28;20052;-59
2023/12/24 06:09:38;;;;;;;0.20;0.20;;;;;;;8.13;100.00;98598.75;5086539;28;20695;-59
2023/12/24 06:12:08;;;;;;;0.30;0.30;;;;;;;8.08;100.00;98595.19;5083213;28;20070;-59
2023/12/24 06:14:35;;;;;;;0.22;0.22;;;;;;;8.11;100.00;98598.19;5087767;28;20059;-59
2023/12/24 06:17:02;;;;;;;0.30;0.30;;;;;;;8.19;100.00;98591.66;5091455;28;20138;-59
2023/12/24 06:19:29;;;;;;;0.30;0.30;;;;;;;8.16;100.00;98592.09;5092290;28;20047;-59
2023/12/24 06:21:56;;;;;;;0.20;0.20;;;;;;;8.24;100.00;98593.56;5089757;28;20162;-59
2023/12/24 06:24:25;;;;;;;0.20;0.20;;;;;;;8.27;100.00;98577.88;5095543;28;20043;-59
2023/12/24 06:26:52;;;;;;;0.30;0.30;;;;;;;8.26;100.00;98586.94;5095606;28;20051;-59
2023/12/24 06:29:19;;;;;;;0.30;0.30;;;;;;;8.34;100.00;98599.91;5093634;28;20051;-59
2023/12/24 06:31:46;;;;;;;0.30;0.30;;;;;;;8.20;100.00;98590.59;5089753;28;20322;-59
2023/12/24 06:34:14;;;;;;;0.30;0.30;;;;;;;8.25;100.00;98595.19;5091451;28;20650;-59
2023/12/24 06:36:41;;;;;;;0.25;0.25;;;;;;;8.29;100.00;98602.50;5094974;28;20120;-59
2023/12/24 06:39:09;;;;;;;0.30;0.30;;;;;;;8.30;100.00;98609.44;5078588;28;20042;-59
2023/12/24 06:41:38;;;;;;;0.30;0.30;;;;;;;8.28;100.00;98600.06;5096549;28;20039;-59
2023/12/24 06:44:05;;;;;;;0.30;0.30;;;;;;;8.30;100.00;98588.06;5069989;28;20043;-59
2023/12/24 06:46:32;;;;;;;0.30;0.30;;;;;;;8.23;100.00;98600.78;5091703;28;20036;-59
2023/12/24 06:48:59;;;;;;;0.22;0.22;;;;;;;8.27;100.00;98601.13;5085981;28;20071;-59
2023/12/24 06:51:26;;;;;;;0.28;0.28;;;;;;;8.14;100.00;98588.91;5072295;28;20827;-60
2023/12/24 06:53:53;;;;;;;0.25;0.25;;;;;;;8.14;100.00;98589.69;5090740;28;20275;-59
2023/12/24 06:56:21;;;;;;;0.30;0.30;;;;;;;8.10;100.00;98591.22;5091203;28;20176;-59
2023/12/24 06:58:49;;;;;;;0.30;0.30;;;;;;;8.19;100.00;98589.78;5091492;28;20043;-60
2023/12/24 07:01:16;;;;;;;0.30;0.30;;;;;;;8.23;100.00;98587.44;5088821;28;20036;-59
2023/12/24 07:03:43;;;;;;;0.28;0.28;;;;;;;8.23;100.00;98576.75;5090251;28;20059;-59
2023/12/24 07:06:11;;;;;;;0.30;0.30;;;;;;;8.17;100.00;98589.22;5073778;28;20039;-59
2023/12/24 07:08:38;;;;;;;0.20;0.20;;;;;;;8.19;100.00;98583.63;5089047;28;20050;-60
2023/12/24 07:11:05;;;;;;;0.30;0.30;;;;;;;8.16;100.00;98584.09;5087109;28;20062;-59
2023/12/24 07:13:32;;;;;;;0.22;0.22;;;;;;;8.23;100.00;98590.09;5090176;28;20060;-59
2023/12/24 07:16:00;;;;;;;0.30;0.30;;;;;;;8.30;100.00;98590.75;5087088;28;20044;-59
2023/12/24 07:18:27;;;;;;;0.30;0.30;;;;;;;8.25;100.00;98598.69;5092407;28;20682;-59
2023/12/24 07:20:56;;;;;;;0.30;0.30;;;;;;;8.31;100.00;98589.72;5091051;28;20617;-59
2023/12/24 07:23:23;;;;;;;0.30;0.30;;;;;;;8.36;100.00;98591.63;5089414;28;20576;-59
2023/12/24 07:25:50;;;;;;;0.30;0.30;;;;;;;8.27;100.00;98596.56;5092143;28;20131;-59
2023/12/24 07:28:17;;;;;;;0.30;0.30;;;;;;;8.34;100.00;98594.56;5087555;28;20051;-59
2023/12/24 07:30:45;;;;;;;0.20;0.20;;;;;;;8.35;100.00;98593.50;5091428;28;20097;-59
2023/12/24 07:33:13;;;;;;;0.30;0.30;;;;;;;8.26;100.00;98602.94;5090813;28;20058;-60
2023/12/24 07:35:40;;;;;;;0.30;0.30;;;;;;;8.34;100.00;98599.09;5089812;28;20054;-59
2023/12/24 07:38:08;;;;;;;0.30;0.30;;;;;;;8.41;100.00;98595.25;5094050;28;20717;-60
2023/12/24 07:40:35;;;;;;;0.28;0.28;;;;;;;8.32;100.00;98590.50;5087515;28;20064;-59
2023/12/24 07:43:02;;;;;;;0.40;0.40;;;;;;;8.37;100.00;98591.41;5089613;28;20831;-59
2023/12/24 07:45:30;;;;;;;0.30;0.30;;;;;;;8.44;100.00;98583.25;5094797;28;20216;-60
2023/12/24 07:47:57;;;;;;;0.30;0.30;;;;;;;8.36;100.00;98586.28;5089696;28;20654;-57
2023/12/24 07:50:27;;;;;;;0.20;0.20;;;;;;;8.45;100.00;98579.53;5088351;28;20134;-57
2023/12/24 07:52:54;;;;;;;0.20;0.20;;;;;;;8.37;100.00;98580.72;5084921;28;20047;-60
2023/12/24 07:55:21;;;;;;;0.13;0.13;;;;;;;8.48;100.00;98573.69;5090901;28;20059;-59
2023/12/24 07:57:49;;;;;;;0.22;0.22;;;;;;;8.43;100.00;98571.75;5072456;28;20132;-59
2023/12/24 08:00:17;;;;;;;0.20;0.20;;;;;;;8.53;100.00;98586.31;5088757;28;20048;-60
2023/12/24 08:02:44;;;;;;;0.30;0.30;;;;;;;8.53;100.00;98584.44;5088520;28;20082;-60
2023/12/24 08:05:11;;;;;;;0.20;0.20;;;;;;;8.52;100.00;98584.72;5090341;28;20350;-60
2023/12/24 08:07:39;;;;;;;0.28;0.28;;;;;;;8.56;100.00;98572.47;5088378;28;20047;-58
2023/12/24 08:10:08;;;;;;;0.20;0.20;;;;;;;8.58;100.00;98586.38;5091040;28;20435;-58
2023/12/24 08:12:35;;;;;;;0.30;0.30;;;;;;;8.56;100.00;98585.81;5072883;28;20485;-58
2023/12/24 08:15:02;;;;;;;0.22;0.22;;;;;;;8.56;100.00;98575.13;5094103;28;20858;-60
2023/12/24 08:17:29;;;;;;;0.20;0.20;;;;;;;8.59;100.00;98586.16;5090501;28;20055;-58
2023/12/24 08:19:59;;;;;;;0.30;0.30;;;;;;;8.56;100.00;98585.81;5081151;28;20484;-58
2023/12/24 08:22:26;;;;;;;0.30;0.30;;;;;;;8.59;100.00;98593.38;5086006;28;20052;-60
2023/12/24 08:24:54;;;;;;;0.28;0.28;;;;;;;8.71;100.00;98596.75;5089072;28;20067;-58
2023/12/24 08:27:22;;;;;;;0.30;0.30;;;;;;;8.69;100.00;98590.84;5095634;28;20048;-58
2023/12/24 08:29:49;;;;;;;0.20;0.20;;;;;;;8.73;100.00;98591.94;5093948;28;20062;-60
2023/12/24 08:32:16;;;;;;;0.28;0.28;;;;;;;8.76;100.00;98580.78;5091271;28;20061;-58
2023/12/24 08:34:44;;;;;;;0.30;0.30;;;;;;;8.89;100.00;98578.81;5088983;28;20168;-60
2023/12/24 08:37:11;;;;;;;0.30;0.30;;;;;;;9.03;100.00;98580.06;5090255;28;20050;-59
2023/12/24 08:39:39;;;;;;;0.30;0.30;;;;;;;9.15;100.00;98580.75;5091720;28;20047;-59
2023/12/24 08:42:07;;;;;;;0.20;0.20;;;;;;;9.37;100.00;98587.97;5090013;28;20117;-59
2023/12/24 08:44:35;;;;;;;0.30;0.30;;;;;;;9.26;100.00;98574.47;5091894;28;20050;-60
2023/12/24 08:47:02;;;;;;;0.30;0.30;;;;;;;9.34;100.00;98586.59;5085910;28;20046;-59
2023/12/24 08:49:29;;;;;;;0.30;0.30;;;;;;;9.51;100.00;98575.81;5073596;28;20085;-60
2023/12/24 08:51:58;;;;;;;0.30;0.30;;;;;;;9.09;100.00;98578.28;5066561;28;20564;-59
2023/12/24 08:54:25;;;;;;;0.20;0.20;;;;;;;9.40;100.00;98584.78;5091335;28;20050;-59
2023/12/24 08:56:53;;;;;;;0.20;0.20;;;;;;;9.35;100.00;98582.03;5092713;28;20040;-60
2023/12/24 08:59:22;;;;;;;0.30;0.30;;;;;;;9.24;100.00;98581.94;5084908;28;20086;-59
2023/12/24 09:01:49;;;;;;;0.30;0.30;;;;;;;9.69;100.00;98578.16;5092590;28;20058;-59
2023/12/24 09:04:17;;;;;;;0.20;0.20;;;;;;;9.80;100.00;98588.94;5086872;28;20058;-59
2023/12/24 09:06:44;;;;;;;0.20;0.20;;;;;;;9.60;100.00;98589.53;5089904;28;20607;-58
2023/12/24 09:09:12;;;;;;;0.22;0.22;;;;;;;9.36;100.00;98587.16;5080035;28;20510;-57
2023/12/24 09:11:39;;;;;;;0.30;0.30;;;;;;;9.77;100.00;98586.78;5086112;28;20051;-58
2023/12/24 09:14:06;;;;;;;0.20;0.20;;;;;;;9.60;100.00;98586.88;5064854;28;20669;-58
2023/12/24 09:16:35;;;;;;;0.13;0.13;;;;;;;9.57;100.00;98588.19;5091192;28;20146;-59
2023/12/24 09:19:04;;;;;;;0.20;0.20;;;;;;;9.49;100.00;98593.97;5090778;28;20047;-58
2023/12/24 09:21:31;;;;;;;0.30;0.30;;;;;;;9.54;100.00;98591.38;5093268;28;20071;-58
2023/12/24 09:24:00;;;;;;;0.20;0.20;;;;;;;9.56;100.00;98599.94;5090742;28;20125;-58
2023/12/24 09:26:32;;;;;;;0.20;0.20;;;;;;;9.36;100.00;98615.75;5084471;28;20055;-59
2023/12/24 09:28:59;;;;;;;0.30;0.30;;;;;;;9.48;100.00;98619.09;5076019;28;20044;-58
2023/12/24 09:31:26;;;;;;;0.20;0.20;;;;;;;9.26;100.00;98600.38;5084651;28;20569;-58
2023/12/24 09:33:54;;;;;;;0.20;0.20;;;;;;;9.22;100.00;98615.31;5090438;28;20063;-58
2023/12/24 09:36:22;;;;;;;0.30;0.30;;;;;;;9.39;100.00;98608.03;5093303;28;20048;-58
2023/12/24 09:38:49;;;;;;;0.20;0.20;;;;;;;10.02;100.00;98608.44;5087389;28;20047;-58
2023/12/24 09:41:18;;;;;;;0.20;0.20;;;;;;;9.41;100.00;98599.75;5087944;28;20075;-58
2023/12/24 09:43:45;;;;;;;0.30;0.30;;;;;;;9.79;100.00;98614.09;5089838;28;20121;-58
2023/12/24 09:46:12;;;;;;;0.20;0.20;;;;;;;9.87;100.00;98611.75;5091069;28;20115;-59
2023/12/24 09:48:39;;;;;;;0.30;0.30;;;;;;;9.83;100.00;98615.19;5093228;28;20416;-58
2023/12/24 09:51:08;;;;;;;0.20;0.20;;;;;;;9.80;100.00;98605.00;5095378;28;20073;-59
2023/12/24 09:53:36;;;;;;;0.20;0.20;;;;;;;9.92;100.00;98608.34;5062115;28;20039;-59
2023/12/24 09:56:03;;;;;;;0.20;0.20;;;;;;;10.10;100.00;98604.47;5090291;28;20048;-58
2023/12/24 09:58:30;;;;;;;0.20;0.20;;;;;;;9.97;100.00;98592.31;5070518;28;20068;-58
2023/12/24 10:00:58;;;;;;;0.20;0.20;;;;;;;9.60;100.00;98590.34;5090472;28;20046;-58
2023/12/24 10:03:26;;;;;;;0.20;0.20;;;;;;;9.97;100.00;98592.31;5093712;28;20047;-60
2023/12/24 10:05:58;;;;;;;0.30;0.30;;;;;;;9.96;100.00;98593.41;5089515;28;20047;-60
2023/12/24 10:08:27;;;;;;;0.20;0.20;;;;;;;10.11;100.00;98598.09;5091908;28;20492;-58
2023/12/24 10:10:57;;;;;;;0.20;0.20;;;;;;;9.67;100.00;98596.31;5091107;28;20131;-61
2023/12/24 10:13:24;;;;;;;0.30;0.30;;;;;;;9.50;100.00;98585.69;5074705;28;20108;-60
2023/12/24 10:16:02;;;;;;;0.30;0.30;;;;;;;9.36;100.00;98567.59;5072257;28;20793;-60
2023/12/24 10:18:30;;;;;;;0.20;0.20;;;;;;;9.33;100.00;98571.59;5081638;28;20044;-60
2023/12/24 10:21:03;;;;;;;0.30;0.30;;;;;;;9.33;100.00;98570.78;5097592;28;20120;-60
2023/12/24 10:23:32;;;;;;;0.20;0.20;;;;;;;9.29;100.00;98573.97;5082506;28;20038;-60
2023/12/24 10:26:03;;;;;;;0.20;0.20;;;;;;;9.38;100.00;98585.00;5096221;28;20048;-58
2023/12/24 10:28:30;;;;;;;0.20;0.20;;;;;;;9.61;100.00;98580.44;5090178;28;20497;-58
2023/12/24 10:31:05;;;;;;;0.20;0.20;;;;;;;10.11;100.00;98579.34;5095446;28;20047;-59
2023/12/24 10:33:32;;;;;;;0.20;0.20;;;;;;;10.03;100.00;98577.91;5096852;28;20037;-59
2023/12/24 10:36:01;;;;;;;0.20;0.20;;;;;;;10.26;100.00;98570.59;5087709;28;20843;-59
2023/12/24 10:38:28;;;;;;;0.20;0.20;;;;;;;10.25;100.00;98574.34;5089643;28;20053;-60
2023/12/24 10:40:56;;;;;;;0.20;0.20;;;;;;;10.31;100.00;98568.00;5089534;28;20052;-60
2023/12/24 10:43:23;;;;;;;0.22;0.22;;;;;;;10.16;100.00;98566.00;5088655;28;20145;-60
2023/12/24 10:45:50;;;;;;;0.20;0.20;;;;;;;10.50;100.00;98579.91;5094046;28;20049;-58
2023/12/24 10:48:17;;;;;;;0.25;0.25;;;;;;;10.47;100.00;98555.53;5091665;28;20052;-58
2023/12/24 10:50:45;;;;;;;0.20;0.20;;;;;;;10.02;100.00;98544.19;5095618;28;20054;-58
2023/12/24 10:53:13;;;;;;;0.20;0.20;;;;;;;10.03;100.00;98534.25;5096561;28;20892;-58
2023/12/24 10:55:41;;;;;;;0.20;0.20;;;;;;;9.99;100.00;98528.63;5091538;28;20181;-58
2023/12/24 10:58:13;;;;;;;0.20;0.20;;;;;;;9.96;100.00;98534.50;5091385;28;20147;-58
2023/12/24 11:00:40;;;;;;;0.30;0.30;;;;;;;9.92;100.00;98538.75;5091150;28;20039;-59
2023/12/24 11:03:07;;;;;;;0.15;0.15;;;;;;;9.78;100.00;98557.06;5090542;28;20149;-58
2023/12/24 11:05:50;;;;;;;0.10;0.10;;;;;;;9.82;100.00;98544.81;5091138;28;20052;-58
2023/12/24 11:08:31;;;;;;;0.20;0.20;;;;;;;9.78;100.00;98537.53;5076545;28;20094;-58
2023/12/24 11:11:01;;;;;;;0.20;0.20;;;;;;;9.77;100.00;98536.72;5088806;28;20063;-58
2023/12/24 11:13:47;;;;;;;0.25;0.25;;;;;;;9.71;100.00;98517.16;5085861;28;20473;-58
2023/12/24 11:16:38;;;;;;;0.15;0.15;;;;;;;9.71;100.00;98535.09;5072070;28;20062;-58
2023/12/24 11:19:06;;;;;;;0.20;0.20;;;;;;;9.71;100.00;98529.72;5089414;28;20126;-58
2023/12/24 11:22:01;;;;;;;0.20;0.20;;;;;;;9.72;100.00;98515.28;5087617;28;20044;-58
2023/12/24 11:24:28;;;;;;;0.20;0.20;;;;;;;9.52;100.00;98512.44;5093350;28;20134;-58
2023/12/24 11:26:55;;;;;;;0.20;0.20;;;;;;;9.50;100.00;98515.34;5091122;28;20047;-58
2023/12/24 11:29:47;;;;;;;0.20;0.20;;;;;;;9.68;100.00;98501.63;5087584;28;20054;-58
2023/12/24 11:32:36;;;;;;;0.20;0.20;;;;;;;9.61;100.00;98519.75;5091531;28;20048;-58
2023/12/24 11:35:06;;;;;;;0.20;0.20;;;;;;;9.56;100.00;98509.00;5092723;28;20132;-58
2023/12/24 11:37:35;;;;;;;0.20;0.20;;;;;;;9.59;100.00;98502.31;5068440;28;20047;-58